Time;durP1;ratioP1;P1;durP2;ratioP2;P2;SDS_P1;SDS_P2;PMS_P1;PMS_P2;Temp;Humidity;BMP_temperature;BMP_pressure;BME280_temperature;BME280_humidity;BME280_pressure;Samples;Min_cycle;Max_cycle;Signal;HPM_P1;HPM_P2
2021/04/15 00:00:42;;;;;;;4.50;3.42;;;;;;;6.43;92.21;98889.84;1620377;87;21607;-58
2021/04/15 00:03:16;;;;;;;3.40;3.10;;;;;;;6.42;92.20;98884.20;1627144;88;21220;-58
2021/04/15 00:05:44;;;;;;;4.45;4.05;;;;;;;6.43;92.27;98885.88;1628772;88;21172;-58
2021/04/15 00:08:14;;;;;;;3.98;3.67;;;;;;;6.42;92.20;98882.88;1629107;88;21393;-57
2021/04/15 00:10:45;;;;;;;3.65;3.35;;;;;;;6.37;92.02;98888.30;1626642;88;21176;-58
2021/04/15 00:13:28;;;;;;;3.85;3.50;;;;;;;6.32;91.99;98889.27;1626001;88;21053;-59
2021/04/15 00:15:58;;;;;;;3.37;3.17;;;;;;;6.28;92.22;98883.50;1629055;88;21136;-59
2021/04/15 00:18:28;;;;;;;3.80;3.45;;;;;;;6.30;92.32;98881.52;1629125;87;21165;-57
2021/04/15 00:20:56;;;;;;;3.60;3.25;;;;;;;6.32;92.22;98877.38;1627187;88;21220;-57
2021/04/15 00:23:24;;;;;;;3.08;2.87;;;;;;;6.33;91.97;98880.37;1627045;87;21057;-57
2021/04/15 00:25:53;;;;;;;3.58;3.27;;;;;;;6.33;91.85;98878.56;1614657;88;21196;-59
2021/04/15 00:28:21;;;;;;;3.20;3.00;;;;;;;6.32;91.89;98874.74;1626409;88;21113;-59
2021/04/15 00:35:14;;;;;;;3.90;3.60;;;;;;;6.27;91.73;98871.75;1619731;86;21313;-58
2021/04/15 00:37:42;;;;;;;4.10;3.80;;;;;;;6.19;91.44;98863.30;1608644;88;21080;-57
2021/04/15 00:40:11;;;;;;;3.87;3.58;;;;;;;6.11;91.44;98868.53;1626165;88;21137;-58
2021/04/15 00:42:40;;;;;;;4.65;4.30;;;;;;;6.05;91.65;98867.34;1629984;87;21105;-59
2021/04/15 00:45:22;;;;;;;4.15;3.85;;;;;;;6.04;91.85;98868.83;1627878;88;21171;-59
2021/04/15 00:48:41;;;;;;;4.20;3.80;;;;;;;6.06;92.07;98867.69;1629592;88;22832;-58
2021/04/15 00:51:32;;;;;;;3.50;3.20;;;;;;;6.10;92.06;98874.30;1628390;88;21176;-57
2021/04/15 00:54:11;;;;;;;3.85;3.55;;;;;;;6.13;91.94;98866.55;1629087;88;21185;-60
2021/04/15 00:56:38;;;;;;;4.40;4.10;;;;;;;6.12;91.80;98872.35;1621319;88;21627;-60
2021/04/15 00:59:07;;;;;;;4.03;3.72;;;;;;;6.10;91.84;98876.94;1629016;87;21173;-62
2021/04/15 01:01:36;;;;;;;4.92;4.55;;;;;;;6.11;91.80;98877.28;1628280;88;21405;-59
2021/04/15 01:04:05;;;;;;;5.33;4.83;;;;;;;6.08;91.56;98877.59;1610656;88;21113;-61
2021/04/15 01:06:33;;;;;;;4.12;3.83;;;;;;;6.05;91.59;98877.06;1598112;89;21594;-59
2021/04/15 01:09:02;;;;;;;4.75;4.35;;;;;;;6.06;91.89;98866.85;1605707;87;21058;-60
2021/04/15 01:11:44;;;;;;;4.65;4.28;;;;;;;6.08;92.02;98868.84;1591199;87;21629;-59
2021/04/15 01:15:02;;;;;;;4.22;3.90;;;;;;;6.10;91.94;98869.53;1595481;88;22713;-60
2021/04/15 01:17:38;;;;;;;4.72;4.33;;;;;;;6.13;91.82;98868.70;1623885;86;21180;-59
2021/04/15 01:20:22;;;;;;;4.07;3.73;;;;;;;6.09;91.20;98862.09;1625780;88;21149;-60
2021/04/15 01:23:34;;;;;;;5.22;4.83;;;;;;;6.06;91.26;98862.41;1625471;86;21054;-60
2021/04/15 01:26:26;;;;;;;5.87;4.90;;;;;;;6.05;91.21;98869.14;1617387;88;21166;-58
2021/04/15 01:29:25;;;;;;;4.67;4.28;;;;;;;5.98;91.08;98867.64;1624163;86;21094;-59
2021/04/15 01:32:22;;;;;;;5.22;4.72;;;;;;;5.94;91.21;98864.98;1625171;87;21153;-58
2021/04/15 01:35:02;;;;;;;5.25;4.75;;;;;;;5.98;91.41;98860.20;1620411;88;20998;-61
2021/04/15 01:37:47;;;;;;;5.03;4.60;;;;;;;6.01;91.27;98862.05;1621111;86;21130;-58
2021/04/15 01:40:22;;;;;;;4.90;4.45;;;;;;;6.04;91.22;98865.70;1621493;86;21252;-60
2021/04/15 01:43:05;;;;;;;4.67;4.28;;;;;;;6.04;90.89;98859.10;1626340;88;21222;-60
2021/04/15 01:45:32;;;;;;;5.28;4.78;;;;;;;6.02;90.91;98859.72;1626243;86;20966;-60
2021/04/15 01:48:14;;;;;;;6.08;5.53;;;;;;;6.01;90.96;98862.05;1624425;88;21121;-61
2021/04/15 01:50:59;;;;;;;5.70;5.20;;;;;;;5.96;90.94;98860.86;1624509;87;21216;-60
2021/04/15 01:53:35;;;;;;;5.10;4.62;;;;;;;5.95;91.24;98861.34;1609471;86;21168;-59
2021/04/15 01:56:13;;;;;;;6.25;5.65;;;;;;;5.94;91.25;98865.47;1625390;88;21450;-61
2021/04/15 01:58:58;;;;;;;6.12;5.53;;;;;;;5.90;91.45;98868.06;1623725;88;21141;-60
2021/04/15 02:01:26;;;;;;;5.35;4.85;;;;;;;5.90;91.71;98878.14;1626293;87;21631;-58
2021/04/15 02:03:58;;;;;;;5.75;5.25;;;;;;;5.89;91.61;98877.80;1608673;86;21535;-60
2021/04/15 02:06:27;;;;;;;4.70;4.30;;;;;;;5.89;91.53;98885.72;1601288;88;21606;-58
2021/04/15 02:09:07;;;;;;;7.42;4.78;;;;;;;5.86;91.56;98882.58;1625987;88;22372;-59
2021/04/15 02:11:47;;;;;;;5.15;4.65;;;;;;;5.87;91.69;98881.58;1612851;86;21207;-59
2021/04/15 02:14:18;;;;;;;4.62;4.22;;;;;;;5.88;91.68;98872.69;1625647;86;21228;-59
2021/04/15 02:16:49;;;;;;;6.15;5.55;;;;;;;5.90;91.57;98870.70;1625944;86;21213;-58
2021/04/15 02:19:23;;;;;;;6.05;5.50;;;;;;;5.86;91.38;98867.57;1626355;86;21591;-59
2021/04/15 02:22:23;;;;;;;5.50;4.57;;;;;;;5.87;91.51;98874.97;1601144;88;21408;-58
2021/04/15 02:25:22;;;;;;;4.75;4.35;;;;;;;5.90;91.45;98862.30;1626170;86;21706;-60
2021/04/15 02:28:18;;;;;;;5.17;4.67;;;;;;;5.88;91.23;98855.03;1626317;88;21101;-60
2021/04/15 02:31:00;;;;;;;5.72;5.22;;;;;;;5.89;91.36;98857.19;1610936;86;21204;-60
2021/04/15 02:33:43;;;;;;;6.70;6.00;;;;;;;5.90;91.32;98864.11;1615505;88;21208;-62
2021/04/15 02:36:10;;;;;;;7.72;7.03;;;;;;;5.89;91.24;98861.95;1626233;88;21217;-58
2021/04/15 02:39:04;;;;;;;7.95;7.15;;;;;;;5.89;91.20;98865.91;1626143;86;21614;-59
2021/04/15 02:41:41;;;;;;;7.22;6.62;;;;;;;5.93;91.00;98863.31;1823758;78;23327;-59
2021/04/15 02:44:22;;;;;;;6.85;6.25;;;;;;;5.88;91.03;98862.95;1775159;79;20887;-59
2021/04/15 02:47:05;;;;;;;7.22;6.62;;;;;;;5.86;91.16;98858.81;1745939;79;20914;-59
2021/04/15 02:49:33;;;;;;;8.18;7.47;;;;;;;5.85;91.15;98867.22;1780534;79;21939;-58
2021/04/15 02:52:15;;;;;;;7.92;7.22;;;;;;;5.80;91.04;98866.83;1772913;79;21139;-59
2021/04/15 02:54:47;;;;;;;8.45;7.65;;;;;;;5.76;91.23;98864.14;1781219;79;20989;-60
2021/04/15 02:57:24;;;;;;;7.80;7.20;;;;;;;5.76;91.52;98869.42;1788611;79;20991;-58
2021/04/15 03:00:11;;;;;;;8.35;7.65;;;;;;;5.75;91.61;98873.06;1758273;79;21195;-59
2021/04/15 03:03:01;;;;;;;7.80;7.08;;;;;;;5.76;91.72;98868.62;1774426;79;20953;-58
2021/04/15 03:05:31;;;;;;;11.48;7.53;;;;;;;5.73;91.62;98861.84;1758264;79;21008;-60
2021/04/15 03:07:59;;;;;;;8.25;7.47;;;;;;;5.72;91.73;98862.81;1758285;79;20980;-59
2021/04/15 03:10:34;;;;;;;10.40;9.40;;;;;;;5.72;91.84;98869.41;1768834;79;21029;-61
2021/04/15 03:13:11;;;;;;;9.25;8.38;;;;;;;5.68;91.61;98873.35;1773550;79;21016;-59
2021/04/15 03:15:42;;;;;;;14.33;11.43;;;;;;;5.64;91.63;98873.30;1758180;79;21577;-58
2021/04/15 03:18:24;;;;;;;13.80;12.45;;;;;;;5.63;91.84;98868.20;1775008;79;20997;-62
2021/04/15 03:21:01;;;;;;;17.60;13.50;;;;;;;5.63;91.94;98869.03;1791928;79;21023;-61
2021/04/15 03:24:04;;;;;;;15.72;14.13;;;;;;;5.62;92.12;98873.95;1771219;79;21163;-60
2021/04/15 03:26:59;;;;;;;14.80;13.40;;;;;;;5.64;92.36;98864.06;1801994;78;22778;-60
2021/04/15 03:29:34;;;;;;;11.70;10.68;;;;;;;5.58;92.43;98866.83;1790907;78;20906;-59
2021/04/15 03:32:23;;;;;;;12.58;11.40;;;;;;;5.58;92.58;98866.83;1751424;79;21201;-60
2021/04/15 03:34:58;;;;;;;12.03;10.93;;;;;;;5.58;92.60;98863.36;1774729;79;21049;-58
2021/04/15 03:37:46;;;;;;;12.03;10.93;;;;;;;5.57;92.88;98870.47;1770947;79;20910;-58
2021/04/15 03:40:13;;;;;;;11.28;10.18;;;;;;;5.59;92.97;98873.77;1780584;79;21657;-58
2021/04/15 03:42:46;;;;;;;10.80;9.80;;;;;;;5.61;92.97;98868.33;1789530;79;20989;-58
2021/04/15 03:45:19;;;;;;;11.68;10.58;;;;;;;5.62;93.00;98871.31;1740159;82;22191;-60
2021/04/15 03:47:57;;;;;;;11.18;10.18;;;;;;;5.66;93.01;98865.25;1753215;80;21112;-58
2021/04/15 03:50:28;;;;;;;11.00;9.90;;;;;;;5.68;92.91;98875.99;1720293;82;21020;-58
2021/04/15 03:53:00;;;;;;;11.85;10.65;;;;;;;5.68;92.65;98874.67;1726511;82;21634;-59
2021/04/15 03:55:35;;;;;;;11.05;9.90;;;;;;;5.67;92.76;98874.32;1755782;80;21549;-58
2021/04/15 03:58:25;;;;;;;10.25;9.35;;;;;;;5.71;92.61;98873.53;1757463;80;21203;-60
2021/04/15 04:00:56;;;;;;;9.35;8.55;;;;;;;5.69;92.49;98871.52;1725112;81;21562;-61
2021/04/15 04:03:24;;;;;;;9.90;9.05;;;;;;;5.71;92.36;98875.66;1724915;81;21124;-58
2021/04/15 04:06:12;;;;;;;8.38;7.67;;;;;;;5.71;92.30;98888.86;1732726;81;21123;-59
2021/04/15 04:08:48;;;;;;;9.05;8.15;;;;;;;5.74;92.25;98887.23;1733571;81;21226;-59
2021/04/15 04:11:19;;;;;;;7.45;6.75;;;;;;;5.74;91.99;98892.52;1724552;81;21376;-59
2021/04/15 04:13:56;;;;;;;7.75;7.05;;;;;;;5.78;91.93;98891.72;1723978;81;21223;-59
2021/04/15 04:16:36;;;;;;;6.70;6.03;;;;;;;5.78;91.66;98889.08;1743008;81;21112;-61
2021/04/15 04:19:19;;;;;;;6.92;6.35;;;;;;;5.80;91.58;98893.70;1747189;81;20995;-60
2021/04/15 04:21:59;;;;;;;7.95;7.25;;;;;;;5.80;91.40;98897.19;1730521;81;21134;-60
2021/04/15 04:24:54;;;;;;;6.85;6.25;;;;;;;5.81;91.21;98910.73;1701160;83;21300;-58
2021/04/15 04:27:39;;;;;;;;;;;;;;;5.79;90.78;98913.19;1740905;81;21134;-59
2021/04/15 04:30:22;;;;;;;7.50;6.80;;;;;;;5.77;90.87;98919.09;1718795;81;20251;-58
2021/04/15 04:32:58;;;;;;;7.55;6.83;;;;;;;5.76;90.85;98919.57;1737603;81;21051;-58
2021/04/15 04:35:29;;;;;;;7.70;7.10;;;;;;;5.75;90.92;98918.42;1744272;81;21148;-58
2021/04/15 04:38:05;;;;;;;8.15;7.37;;;;;;;5.75;91.12;98921.06;1737259;81;21335;-58
2021/04/15 04:40:42;;;;;;;7.40;6.70;;;;;;;5.75;91.03;98932.45;1750276;81;21040;-57
2021/04/15 04:43:22;;;;;;;7.47;6.78;;;;;;;5.75;91.04;98923.70;1732933;81;21136;-58
2021/04/15 04:45:50;;;;;;;6.40;5.85;;;;;;;5.76;91.10;98919.57;1738306;81;20966;-58
2021/04/15 04:48:31;;;;;;;5.90;5.40;;;;;;;5.77;90.63;98925.20;1723890;81;21132;-57
2021/04/15 04:51:11;;;;;;;6.28;5.78;;;;;;;5.74;90.68;98925.98;1727849;81;22367;-58
2021/04/15 04:53:41;;;;;;;7.60;6.95;;;;;;;5.73;90.69;98923.86;1743652;81;20973;-58
2021/04/15 04:56:28;;;;;;;9.73;8.83;;;;;;;5.71;90.56;98920.52;1725786;81;21467;-58
2021/04/15 04:58:59;;;;;;;8.10;7.40;;;;;;;5.72;90.55;98914.77;1738423;81;21033;-59
2021/04/15 05:01:27;;;;;;;6.20;5.70;;;;;;;5.71;90.68;98919.20;1724474;81;21553;-59
2021/04/15 05:04:02;;;;;;;5.90;5.40;;;;;;;5.72;90.84;98914.77;1726477;81;21307;-59
2021/04/15 05:06:35;;;;;;;5.62;5.12;;;;;;;5.76;90.79;98915.61;1747467;81;21498;-60
2021/04/15 05:09:35;;;;;;;5.85;4.95;;;;;;;5.79;90.68;98916.63;1741359;81;21005;-65
2021/04/15 05:12:09;;;;;;;6.75;5.53;;;;;;;5.81;90.68;98918.66;1685172;84;21222;-60
2021/04/15 05:14:44;;;;;;;6.45;5.85;;;;;;;5.88;90.39;98920.20;1820543;78;22777;-60
2021/04/15 05:17:27;;;;;;;7.17;6.05;;;;;;;5.85;90.22;98921.34;1788976;79;20887;-62
2021/04/15 05:20:04;;;;;;;8.05;6.67;;;;;;;5.86;90.21;98919.05;1747495;81;21016;-60
2021/04/15 05:22:42;;;;;;;7.75;6.87;;;;;;;5.88;90.15;98914.44;1762482;80;21549;-60
2021/04/15 05:25:31;;;;;;;9.48;7.90;;;;;;;5.87;89.95;98915.41;1729357;82;21004;-60
2021/04/15 05:27:59;;;;;;;15.03;11.38;;;;;;;5.82;90.27;98909.73;1759279;80;21124;-59
2021/04/15 05:30:47;;;;;;;15.23;10.93;;;;;;;5.84;90.53;98916.19;1726635;81;21608;-59
2021/04/15 05:33:19;;;;;;;13.40;10.70;;;;;;;5.85;90.61;98918.70;1755836;80;21395;-59
2021/04/15 05:36:03;;;;;;;10.88;9.60;;;;;;;5.94;90.88;98922.23;1749860;80;21064;-59
2021/04/15 05:38:39;;;;;;;10.88;9.63;;;;;;;6.01;90.81;98926.73;1753470;80;21559;-60
2021/04/15 05:41:11;;;;;;;10.90;9.13;;;;;;;6.06;90.59;98920.50;1738626;79;21178;-59
2021/04/15 05:43:46;;;;;;;10.63;8.53;;;;;;;6.07;90.25;98920.84;1741107;79;21558;-59
2021/04/15 05:46:38;;;;;;;10.45;9.35;;;;;;;6.09;90.10;98925.96;1749900;80;21391;-60
2021/04/15 05:49:06;;;;;;;11.43;10.10;;;;;;;6.10;90.22;98917.88;1749837;80;21066;-60
2021/04/15 05:51:53;;;;;;;12.58;11.08;;;;;;;6.13;90.27;98920.69;1749823;80;20933;-59
2021/04/15 05:54:21;;;;;;;11.35;9.70;;;;;;;6.13;90.23;98916.25;1745206;80;20934;-60
2021/04/15 05:57:15;;;;;;;12.30;10.40;;;;;;;6.13;90.21;98912.28;1739063;79;21145;-59
2021/04/15 06:00:14;;;;;;;10.68;9.68;;;;;;;6.11;90.15;98905.02;1739075;80;21627;-60
2021/04/15 06:02:54;;;;;;;11.35;9.70;;;;;;;6.12;90.33;98900.08;1746175;81;20961;-59
2021/04/15 06:05:30;;;;;;;12.78;11.25;;;;;;;6.15;90.41;98896.30;1734104;81;21088;-60
2021/04/15 06:07:59;;;;;;;;;;;;;;;6.19;90.49;98898.46;1736722;81;21025;-60
2021/04/15 06:10:29;;;;;;;11.10;9.90;;;;;;;6.23;90.37;98890.55;1723973;81;20175;-60
2021/04/15 06:13:22;;;;;;;12.35;10.72;;;;;;;6.26;90.33;98897.33;1733841;81;22232;-60
2021/04/15 06:15:57;;;;;;;15.83;11.85;;;;;;;6.30;90.27;98896.53;1734201;81;20969;-60
2021/04/15 06:18:52;;;;;;;12.68;10.88;;;;;;;6.36;90.33;98889.31;1712465;82;20940;-59
2021/04/15 06:21:26;;;;;;;13.05;10.80;;;;;;;6.43;90.09;98887.68;1729985;81;21044;-60
2021/04/15 06:24:05;;;;;;;13.80;12.18;;;;;;;6.54;89.85;98884.77;1745380;82;20921;-59
2021/04/15 06:26:49;;;;;;;14.43;12.43;;;;;;;6.57;89.20;98881.81;1786935;79;21344;-58
2021/04/15 06:29:48;;;;;;;12.98;11.55;;;;;;;6.62;89.16;98887.44;1814239;79;21072;-59
2021/04/15 06:32:22;;;;;;;11.88;10.78;;;;;;;6.65;88.76;98889.74;1801023;78;21064;-59
2021/04/15 06:34:50;;;;;;;11.80;10.70;;;;;;;6.66;88.65;98886.13;1804622;79;21013;-59
2021/04/15 06:37:22;;;;;;;13.35;11.57;;;;;;;6.67;88.62;98885.15;1782102;79;21577;-59
2021/04/15 06:39:59;;;;;;;14.30;12.88;;;;;;;6.69;88.70;98886.64;1782196;79;21362;-60
2021/04/15 06:42:53;;;;;;;13.00;11.70;;;;;;;6.73;88.45;98891.09;1794781;79;20978;-59
2021/04/15 06:45:59;;;;;;;11.35;10.25;;;;;;;6.76;88.51;98887.65;1814146;79;21075;-61
2021/04/15 06:49:02;;;;;;;14.78;13.30;;;;;;;6.80;88.26;98890.29;1789652;79;21128;-59
2021/04/15 06:51:59;;;;;;;13.08;11.78;;;;;;;6.84;87.82;98882.88;1826290;77;21373;-60
2021/04/15 06:55:10;;;;;;;12.43;11.22;;;;;;;6.81;87.28;98876.09;1797556;77;21371;-60
2021/04/15 06:58:10;;;;;;;15.23;13.65;;;;;;;6.80;87.04;98885.52;1763054;79;21045;-58
2021/04/15 07:01:07;;;;;;;12.75;11.45;;;;;;;6.74;86.79;98882.19;1738294;81;21125;-59
2021/04/15 07:03:46;;;;;;;11.28;10.28;;;;;;;6.73;87.18;98893.25;1757136;80;20998;-60
2021/04/15 07:06:48;;;;;;;16.00;14.18;;;;;;;6.74;87.00;98898.88;1753942;80;21148;-58
2021/04/15 07:09:51;;;;;;;13.30;9.05;;;;;;;6.74;87.05;98904.66;1749384;79;21476;-59
2021/04/15 07:13:06;;;;;;;12.25;7.20;;;;;;;6.80;86.72;98913.28;1740630;79;21148;-58
2021/04/15 07:16:07;;;;;;;8.48;6.70;;;;;;;6.88;86.49;98920.41;1729041;81;21186;-59
2021/04/15 07:19:05;;;;;;;8.38;7.35;;;;;;;6.94;86.12;98925.87;1729440;81;21139;-59
2021/04/15 07:22:22;;;;;;;9.30;8.40;;;;;;;6.99;85.33;98928.06;1785481;79;21479;-59
2021/04/15 07:25:29;;;;;;;;;;;;;;;6.96;85.20;98923.89;1784557;79;21187;-58
2021/04/15 07:28:22;;;;;;;9.60;7.95;;;;;;;6.96;84.89;98913.31;1782392;79;20265;-58
2021/04/15 07:31:08;;;;;;;11.10;10.05;;;;;;;6.91;84.84;98909.00;1797356;79;21133;-58
2021/04/15 07:34:04;;;;;;;14.33;10.10;;;;;;;6.90;84.97;98908.69;1799539;78;21024;-59
2021/04/15 07:37:00;;;;;;;11.95;10.15;;;;;;;6.92;85.12;98901.41;1781956;79;21076;-60
2021/04/15 07:40:20;;;;;;;11.25;9.25;;;;;;;6.96;85.15;98906.70;1773616;79;21399;-60
2021/04/15 07:43:34;;;;;;;10.65;9.00;;;;;;;7.06;84.88;98898.65;1793937;79;21028;-57
2021/04/15 07:46:42;;;;;;;10.60;9.35;;;;;;;7.09;84.76;98900.45;1811279;79;21104;-61
2021/04/15 07:49:22;;;;;;;10.08;9.13;;;;;;;7.16;84.63;98899.33;1793199;79;21021;-59
2021/04/15 07:52:20;;;;;;;10.60;9.60;;;;;;;7.22;84.26;98898.69;1790157;79;21221;-59
2021/04/15 07:54:58;;;;;;;9.75;8.75;;;;;;;7.21;83.83;98903.14;1795503;79;21188;-58
2021/04/15 07:57:46;;;;;;;9.68;8.75;;;;;;;7.27;84.06;98905.11;1781828;79;21033;-59
2021/04/15 08:00:34;;;;;;;10.40;9.50;;;;;;;7.32;83.87;98901.52;1804610;79;21087;-59
2021/04/15 08:03:35;;;;;;;10.45;9.45;;;;;;;7.44;83.83;98896.22;1818979;78;22670;-59
2021/04/15 08:06:24;;;;;;;12.07;8.63;;;;;;;7.48;83.64;98903.84;1776906;79;20957;-60
2021/04/15 08:08:57;;;;;;;8.63;7.83;;;;;;;7.55;83.25;98899.53;1758636;79;21494;-61
2021/04/15 08:11:50;;;;;;;7.12;6.53;;;;;;;7.61;82.97;98902.85;1772359;79;21008;-59
2021/04/15 08:14:49;;;;;;;9.23;7.03;;;;;;;7.67;82.84;98903.00;1797929;79;20974;-60
2021/04/15 08:17:56;;;;;;;8.40;7.70;;;;;;;7.74;82.49;98897.88;1757770;79;21609;-59
2021/04/15 08:20:44;;;;;;;8.43;7.50;;;;;;;7.77;82.30;98896.23;1747051;81;21027;-60
2021/04/15 08:24:03;;;;;;;7.25;6.47;;;;;;;7.80;81.73;98905.98;1755292;80;21023;-57
2021/04/15 08:27:23;;;;;;;7.80;6.87;;;;;;;7.86;81.70;98915.08;1767653;79;21028;-58
2021/04/15 08:30:25;;;;;;;8.03;7.22;;;;;;;7.89;80.95;98918.72;1779258;79;21060;-60
2021/04/15 08:33:38;;;;;;;12.18;8.23;;;;;;;7.84;80.26;98918.40;1772003;79;21023;-61
2021/04/15 08:36:37;;;;;;;8.10;7.30;;;;;;;7.73;80.39;98924.85;1765888;79;21452;-58
2021/04/15 08:39:24;;;;;;;10.93;8.13;;;;;;;7.77;80.86;98924.84;1768819;79;21048;-58
2021/04/15 08:42:39;;;;;;;9.78;8.78;;;;;;;7.84;80.57;98910.45;1830590;78;23131;-58
2021/04/15 08:45:40;;;;;;;10.63;8.98;;;;;;;7.85;80.90;98912.92;1809891;79;20934;-59
2021/04/15 08:48:25;;;;;;;9.23;8.38;;;;;;;7.94;80.42;98907.12;1788082;79;21193;-59
2021/04/15 08:51:10;;;;;;;9.03;8.13;;;;;;;7.92;79.69;98891.42;1725580;82;21031;-60
2021/04/15 08:54:12;;;;;;;11.33;8.30;;;;;;;7.91;79.54;98886.27;1739922;80;20942;-60
2021/04/15 08:57:24;;;;;;;10.95;9.00;;;;;;;7.96;79.66;98895.37;1749501;80;21058;-59
2021/04/15 09:00:19;;;;;;;10.13;9.23;;;;;;;8.05;79.64;98901.00;1743581;80;21198;-60
2021/04/15 09:02:58;;;;;;;14.78;10.40;;;;;;;8.12;79.23;98904.28;1749703;80;21210;-59
2021/04/15 09:06:02;;;;;;;12.18;9.30;;;;;;;8.14;79.39;98889.88;1741457;79;21586;-58
2021/04/15 09:09:06;;;;;;;9.08;8.18;;;;;;;8.20;79.39;98880.42;1764784;79;21363;-59
2021/04/15 09:12:06;;;;;;;9.23;8.23;;;;;;;8.29;79.25;98893.50;1774286;80;21028;-58
2021/04/15 09:15:25;;;;;;;8.90;7.45;;;;;;;8.44;79.15;98896.30;1754249;80;21141;-59
2021/04/15 09:18:34;;;;;;;8.00;7.00;;;;;;;8.56;78.65;98894.92;1741344;79;21399;-60
2021/04/15 09:21:17;;;;;;;8.45;7.00;;;;;;;8.60;78.09;98899.70;1748723;79;21674;-57
2021/04/15 09:24:00;;;;;;;8.00;7.20;;;;;;;8.64;77.84;98892.23;1745159;79;20975;-60
2021/04/15 09:26:55;;;;;;;7.72;7.12;;;;;;;8.62;77.55;98892.91;1738848;79;20954;-58
2021/04/15 09:29:53;;;;;;;9.80;7.70;;;;;;;8.60;77.06;98898.38;1735970;79;21203;-58
2021/04/15 09:32:41;;;;;;;8.35;7.37;;;;;;;8.55;77.22;98898.06;1745092;80;21329;-59
2021/04/15 09:35:42;;;;;;;7.87;7.17;;;;;;;8.54;77.21;98899.08;1768180;79;21022;-60
2021/04/15 09:38:51;;;;;;;7.28;6.67;;;;;;;8.52;77.27;98895.78;1767991;79;21160;-58
2021/04/15 09:42:04;;;;;;;8.05;7.35;;;;;;;8.52;77.37;98897.59;1732681;79;20947;-59
2021/04/15 09:45:01;;;;;;;9.65;7.37;;;;;;;8.49;77.06;98903.23;1740259;79;21161;-58
2021/04/15 09:48:20;;;;;;;7.00;6.30;;;;;;;8.42;77.14;98899.62;1746677;81;20996;-59
2021/04/15 09:51:27;;;;;;;6.83;6.12;;;;;;;8.37;77.31;98903.28;1735295;81;21184;-59
2021/04/15 09:54:01;;;;;;;7.40;6.78;;;;;;;8.32;77.68;98905.59;1728021;79;21128;-60
2021/04/15 09:57:05;;;;;;;7.47;6.87;;;;;;;8.31;77.73;98902.14;1745534;79;21075;-59
2021/04/15 10:00:07;;;;;;;10.18;6.75;;;;;;;8.28;77.53;98893.69;1761746;79;21121;-58
2021/04/15 10:03:12;;;;;;;9.20;6.65;;;;;;;8.25;77.60;98895.31;1742544;82;21414;-59
2021/04/15 10:06:02;;;;;;;8.03;6.95;;;;;;;8.26;77.72;98896.48;1680438;84;21274;-59
2021/04/15 10:08:42;;;;;;;7.22;6.53;;;;;;;8.28;77.71;98895.84;1665120;84;21723;-57
2021/04/15 10:11:54;;;;;;;7.10;6.50;;;;;;;8.35;77.95;98895.48;1823841;78;23003;-59
2021/04/15 10:15:03;;;;;;;6.70;6.05;;;;;;;8.33;77.92;98893.52;1793864;79;20987;-59
2021/04/15 10:17:42;;;;;;;7.90;7.08;;;;;;;8.33;77.58;98888.70;1792134;79;22184;-60
2021/04/15 10:20:28;;;;;;;8.85;6.80;;;;;;;8.27;77.58;98894.18;1786849;79;21232;-57
2021/04/15 10:23:29;;;;;;;7.12;6.53;;;;;;;8.24;77.98;98890.51;1757829;79;21008;-59
2021/04/15 10:26:28;;;;;;;7.35;6.45;;;;;;;8.27;78.08;98887.55;1769499;79;21033;-59
2021/04/15 10:29:13;;;;;;;7.90;7.10;;;;;;;8.25;77.86;98888.69;1768681;79;21570;-59
2021/04/15 10:31:54;;;;;;;8.13;7.42;;;;;;;8.25;78.07;98887.36;1766682;79;21546;-59
2021/04/15 10:34:54;;;;;;;8.60;7.28;;;;;;;8.27;78.10;98885.39;1780190;79;21565;-59
2021/04/15 10:38:03;;;;;;;8.48;7.67;;;;;;;8.28;78.22;98881.77;1786674;79;20991;-59
2021/04/15 10:41:06;;;;;;;7.97;7.25;;;;;;;8.33;78.37;98892.19;1787915;79;21015;-61
2021/04/15 10:44:23;;;;;;;8.58;7.53;;;;;;;8.41;78.25;98885.53;1757866;79;21047;-62
2021/04/15 10:47:08;;;;;;;8.55;7.75;;;;;;;8.45;77.93;98882.86;1793596;79;22652;-60
2021/04/15 10:49:48;;;;;;;7.55;6.85;;;;;;;8.49;77.70;98887.33;1781457;79;21160;-60
2021/04/15 10:52:57;;;;;;;7.78;7.15;;;;;;;8.49;77.72;98889.48;1780567;77;21574;-60
2021/04/15 10:55:36;;;;;;;7.87;7.20;;;;;;;8.51;77.94;98891.95;1806982;77;21060;-59
2021/04/15 10:58:31;;;;;;;7.08;6.40;;;;;;;8.54;77.89;98887.15;1780587;79;20940;-60
2021/04/15 11:01:29;;;;;;;9.53;7.47;;;;;;;8.55;77.91;98885.33;1786858;79;21354;-60
2021/04/15 11:04:13;;;;;;;8.23;7.03;;;;;;;8.53;77.96;98890.78;1758947;79;21182;-62
2021/04/15 11:06:52;;;;;;;11.50;8.68;;;;;;;8.52;78.26;98887.83;1768818;79;21104;-59
2021/04/15 11:09:33;;;;;;;8.80;7.83;;;;;;;8.51;78.28;98890.63;1789456;79;21004;-59
2021/04/15 11:12:18;;;;;;;8.78;8.08;;;;;;;8.50;78.40;98887.14;1737584;81;21000;-58
2021/04/15 11:14:51;;;;;;;;;;;;;;;8.48;78.47;98895.78;1726917;81;21365;-61
2021/04/15 11:17:35;;;;;;;11.53;8.60;;;;;;;8.46;78.80;98891.16;1724356;81;20297;-59
2021/04/15 11:20:23;;;;;;;11.15;9.63;;;;;;;8.45;78.86;98890.81;1716834;82;21573;-60
2021/04/15 11:23:04;;;;;;;9.73;8.28;;;;;;;8.42;79.02;98892.47;1773611;79;21049;-59
2021/04/15 11:25:40;;;;;;;7.45;6.75;;;;;;;8.42;79.23;98889.82;1773594;79;21650;-59
2021/04/15 11:28:27;;;;;;;6.80;6.00;;;;;;;8.41;79.33;98899.28;1773764;79;21594;-58
2021/04/15 11:31:05;;;;;;;6.37;5.78;;;;;;;8.39;79.08;98898.63;1736994;81;21074;-58
2021/04/15 11:33:42;;;;;;;6.42;5.92;;;;;;;8.36;79.32;98893.67;1787533;79;21131;-59
2021/04/15 11:36:24;;;;;;;7.35;6.08;;;;;;;8.37;79.66;98892.69;1773692;79;20977;-60
2021/04/15 11:39:12;;;;;;;6.58;5.97;;;;;;;8.33;79.71;98895.33;1773755;79;21538;-59
2021/04/15 11:41:59;;;;;;;6.65;6.08;;;;;;;8.28;80.04;98885.73;1773972;78;21448;-59
2021/04/15 11:44:44;;;;;;;6.42;5.92;;;;;;;8.27;80.13;98889.38;1789155;79;20970;-60
2021/04/15 11:47:28;;;;;;;5.47;4.93;;;;;;;8.25;80.32;98891.34;1760684;81;21223;-58
2021/04/15 11:50:22;;;;;;;5.58;5.15;;;;;;;8.23;80.59;98890.20;1773475;79;21009;-60
2021/04/15 11:52:53;;;;;;;5.62;5.12;;;;;;;8.21;81.07;98890.88;1773648;79;21013;-58
2021/04/15 11:55:28;;;;;;;5.85;5.35;;;;;;;8.19;81.50;98884.89;1792551;79;21625;-58
2021/04/15 11:58:04;;;;;;;5.30;4.80;;;;;;;8.16;81.65;98889.20;1786328;79;21601;-60
2021/04/15 12:00:34;;;;;;;5.90;5.40;;;;;;;8.14;81.83;98884.58;1800331;79;21153;-59
2021/04/15 12:03:10;;;;;;;6.12;5.53;;;;;;;8.08;82.01;98887.39;1787953;79;21176;-58
2021/04/15 12:05:41;;;;;;;5.85;5.45;;;;;;;8.09;82.30;98878.95;1778143;79;21143;-59
2021/04/15 12:08:27;;;;;;;6.03;5.45;;;;;;;8.06;82.46;98876.64;1790492;79;21191;-59
2021/04/15 12:11:27;;;;;;;5.17;4.78;;;;;;;8.06;82.41;98884.09;1773432;79;21160;-58
2021/04/15 12:13:59;;;;;;;6.03;5.45;;;;;;;8.09;82.44;98880.28;1791222;79;21059;-59
2021/04/15 12:16:52;;;;;;;5.30;4.83;;;;;;;8.09;82.62;98877.14;1777346;79;21001;-58
2021/04/15 12:19:43;;;;;;;5.30;4.70;;;;;;;8.10;82.54;98880.63;1795649;79;21061;-58
2021/04/15 12:22:50;;;;;;;5.50;5.00;;;;;;;8.11;82.18;98876.95;1773655;79;21422;-59
2021/04/15 12:25:24;;;;;;;;;;;;;;;8.11;81.98;98878.28;1708722;83;21226;-59
2021/04/15 12:28:01;;;;;;;5.22;4.83;;;;;;;8.09;81.83;98876.31;1764459;79;20112;-58
2021/04/15 12:30:30;;;;;;;;;;;;;;;8.07;82.16;98875.66;1726412;79;21187;-61
2021/04/15 12:33:14;;;;;;;5.40;4.90;;;;;;;8.08;82.48;98876.80;1773581;79;20586;-59
2021/04/15 12:36:12;;;;;;;6.00;5.50;;;;;;;8.11;82.66;98872.98;1773571;79;21195;-61
2021/04/15 12:38:48;;;;;;;5.62;5.12;;;;;;;8.14;82.87;98870.49;1773487;79;21013;-59
2021/04/15 12:41:17;;;;;;;4.97;4.58;;;;;;;8.18;82.96;98870.01;1773725;79;21373;-61
2021/04/15 12:44:11;;;;;;;5.42;4.92;;;;;;;8.21;82.78;98866.19;1758265;81;21177;-59
2021/04/15 12:46:41;;;;;;;4.78;4.37;;;;;;;8.22;82.81;98866.01;1795829;79;21142;-59
2021/04/15 12:49:11;;;;;;;4.45;4.05;;;;;;;8.23;82.54;98867.67;1790275;78;21332;-58
2021/04/15 12:51:43;;;;;;;4.62;4.22;;;;;;;8.22;82.32;98862.52;1812303;78;22552;-59
2021/04/15 12:54:24;;;;;;;5.45;4.92;;;;;;;8.17;82.20;98865.69;1792049;79;21142;-61
2021/04/15 12:56:54;;;;;;;4.45;4.05;;;;;;;8.12;82.45;98866.70;1771116;79;21176;-58
2021/04/15 12:59:26;;;;;;;7.00;5.35;;;;;;;8.07;82.60;98869.03;1773520;79;21151;-59
2021/04/15 13:01:54;;;;;;;4.65;4.25;;;;;;;8.02;82.69;98864.25;1758135;81;21205;-60
2021/04/15 13:04:39;;;;;;;4.47;4.08;;;;;;;7.99;82.65;98865.07;1723905;81;21019;-61
2021/04/15 13:07:13;;;;;;;4.70;4.05;;;;;;;7.99;82.83;98866.40;1724825;82;21024;-60